Time;durP1;ratioP1;P1;durP2;ratioP2;P2;SDS_P1;SDS_P2;PMS_P1;PMS_P2;Temp;Humidity;BMP_temperature;BMP_pressure;BME280_temperature;BME280_humidity;BME280_pressure;Samples;Min_cycle;Max_cycle;Signal;HPM_P1;HPM_P2
2022/09/02 02:24:43;;;;;;;0.85;0.10;;;16.70;70.80;;;;;;5950151;23;21090;31
2022/09/02 03:45:23;;;;;;;1.25;0.10;;;16.30;72.30;;;;;;4899814;29;20073;-87
2022/09/02 04:02:24;;;;;;;1.23;0.10;;;16.30;73.60;;;;;;5394629;23;20049;-89
2022/09/02 04:09:21;;;;;;;3.90;0.20;;;16.30;74.00;;;;;;5097506;24;20041;-88
2022/09/02 04:12:15;;;;;;;1.77;0.30;;;16.60;74.50;;;;;;4824451;29;20038;-88
2022/09/02 05:13:50;;;;;;;0.70;0.10;;;16.20;75.00;;;;;;4824673;29;20071;-87
2022/09/02 05:16:54;;;;;;;3.33;0.17;;;16.10;74.60;;;;;;4786585;29;20052;-86
2022/09/02 05:26:15;;;;;;;1.80;0.10;;;16.10;75.40;;;;;;4826280;29;20055;-87
2022/09/02 05:57:03;;;;;;;2.40;0.10;;;16.60;73.40;;;;;;5532655;23;20055;31
2022/09/02 08:35:03;;;;;;;3.38;0.22;;;19.10;67.40;;;;;;4867087;29;20064;-92
2022/09/02 08:37:31;;;;;;;3.83;0.20;;;19.30;66.60;;;;;;4855470;29;20050;-92
2022/09/02 08:40:03;;;;;;;1.38;0.20;;;19.20;65.40;;;;;;4846663;29;20055;-90
2022/09/02 08:42:40;;;;;;;1.95;0.20;;;19.30;66.40;;;;;;4843167;29;20053;-91
2022/09/02 08:45:20;;;;;;;2.70;0.20;;;19.40;66.50;;;;;;4868820;29;20520;-93
2022/09/02 08:48:05;;;;;;;1.88;0.20;;;19.50;65.20;;;;;;4841642;29;20049;-91
2022/09/02 08:50:37;;;;;;;1.17;0.20;;;19.70;65.30;;;;;;4857673;29;20129;-90
2022/09/02 08:53:08;;;;;;;1.65;0.20;;;19.70;64.40;;;;;;4845552;29;20051;-90
2022/09/02 08:55:54;;;;;;;1.90;0.30;;;19.80;65.10;;;;;;4831219;29;20088;-90
2022/09/02 08:58:27;;;;;;;3.00;0.30;;;19.80;64.80;;;;;;4841146;29;20049;-92
2022/09/02 09:01:23;;;;;;;2.63;0.40;;;19.80;65.40;;;;;;4853564;29;20055;-90
2022/09/02 09:04:09;;;;;;;1.27;0.20;;;19.70;64.30;;;;;;4857215;29;20052;-92
2022/09/02 09:07:11;;;;;;;2.45;0.40;;;19.80;65.50;;;;;;4841127;29;20093;-92
2022/09/02 09:09:39;;;;;;;1.60;0.32;;;19.90;65.10;;;;;;4852331;29;20053;-93
2022/09/02 09:12:38;;;;;;;3.60;0.50;;;19.90;64.60;;;;;;4840633;29;20046;-91
2022/09/02 09:15:24;;;;;;;5.15;0.47;;;20.00;64.50;;;;;;4840877;29;20084;-94
2022/09/02 09:17:58;;;;;;;1.55;0.30;;;20.00;63.90;;;;;;4844856;29;20076;-94
2022/09/02 09:20:33;;;;;;;1.35;0.35;;;20.00;64.50;;;;;;4882002;29;20085;-92
2022/09/02 09:23:24;;;;;;;1.75;0.30;;;20.10;64.20;;;;;;4858039;29;20076;-93
2022/09/02 09:25:58;;;;;;;5.43;0.82;;;20.20;64.70;;;;;;4844203;29;20451;-91
2022/09/02 09:28:27;;;;;;;2.15;0.20;;;20.20;63.40;;;;;;4842071;29;20452;-91
2022/09/02 09:30:54;;;;;;;4.28;0.60;;;20.20;62.70;;;;;;4856225;29;20121;-89
2022/09/02 09:33:22;;;;;;;1.35;0.30;;;20.20;64.00;;;;;;4836897;29;20064;-90
2022/09/02 09:35:52;;;;;;;1.38;0.30;;;20.30;63.80;;;;;;4836910;29;20096;-94
2022/09/02 09:38:32;;;;;;;2.65;0.28;;;20.30;63.20;;;;;;4836912;29;20053;-90
2022/09/02 09:41:23;;;;;;;1.48;0.30;;;20.30;62.20;;;;;;4841752;29;20053;-89
2022/09/02 09:43:50;;;;;;;1.77;0.30;;;20.20;63.70;;;;;;4842925;29;20145;-90
2022/09/02 09:46:26;;;;;;;2.13;0.20;;;20.30;63.60;;;;;;4839760;29;20105;-89
2022/09/02 09:48:54;;;;;;;3.45;0.30;;;20.40;62.90;;;;;;4846368;29;20068;-90
2022/09/02 09:51:22;;;;;;;0.55;0.30;;;20.40;63.80;;;;;;4847413;29;20041;-91
2022/09/02 09:53:49;;;;;;;1.35;0.43;;;20.40;63.30;;;;;;4840335;29;20053;-88
2022/09/02 09:56:19;;;;;;;1.23;0.50;;;20.50;63.10;;;;;;4855692;29;20079;-91
2022/09/02 09:58:48;;;;;;;1.50;0.30;;;20.50;63.30;;;;;;4844202;29;20069;-90
2022/09/02 10:01:20;;;;;;;0.98;0.40;;;20.50;62.60;;;;;;4858748;29;20050;-90
2022/09/02 10:03:51;;;;;;;1.92;0.40;;;20.40;62.90;;;;;;4842871;29;20069;-90
2022/09/02 10:06:24;;;;;;;0.98;0.30;;;20.50;63.50;;;;;;4844917;29;20041;-90
2022/09/02 10:08:56;;;;;;;;;;;20.60;65.20;;;;;;4843745;29;20034;-90
2022/09/02 10:11:25;;;;;;;1.08;0.22;;;20.70;64.30;;;;;;4841541;29;20617;-90
2022/09/02 10:13:59;;;;;;;2.28;1.00;;;20.70;63.30;;;;;;4843625;29;20046;-95
2022/09/02 10:17:04;;;;;;;2.00;0.50;;;20.80;63.10;;;;;;4841450;29;20065;-88
2022/09/02 10:19:40;;;;;;;1.48;0.28;;;20.80;62.30;;;;;;4839571;29;20050;-86
2022/09/02 10:22:26;;;;;;;1.42;0.20;;;20.70;61.90;;;;;;4838948;29;20566;-90
2022/09/02 10:25:20;;;;;;;1.58;0.22;;;20.80;61.90;;;;;;4843718;29;20064;-87
2022/09/02 10:27:54;;;;;;;3.25;0.57;;;21.00;61.30;;;;;;4854758;29;20050;-88
2022/09/02 10:30:23;;;;;;;1.67;0.30;;;21.00;61.50;;;;;;4849019;29;20049;-87
2022/09/02 10:33:25;;;;;;;1.52;0.30;;;21.00;62.40;;;;;;4844026;29;20132;-91
2022/09/02 10:36:15;;;;;;;1.38;0.28;;;20.90;61.90;;;;;;4853615;29;20060;-95
2022/09/02 10:38:49;;;;;;;1.30;0.50;;;20.90;61.60;;;;;;4855375;29;20033;-86
2022/09/02 10:41:34;;;;;;;1.98;0.40;;;20.90;61.70;;;;;;4859145;29;20052;-85
2022/09/02 10:44:23;;;;;;;2.80;0.50;;;21.00;61.70;;;;;;4881744;29;20048;-92
2022/09/02 10:46:59;;;;;;;2.80;0.30;;;21.00;62.00;;;;;;4862544;29;20048;-89
2022/09/02 10:49:41;;;;;;;0.88;0.32;;;21.10;61.90;;;;;;4876374;29;20045;-85
2022/09/02 10:52:37;;;;;;;1.98;0.40;;;21.10;61.80;;;;;;4855108;29;20072;-87
2022/09/02 10:55:32;;;;;;;0.70;0.30;;;21.20;60.80;;;;;;4864204;29;20056;-91
2022/09/02 10:58:07;;;;;;;1.33;0.20;;;21.30;61.70;;;;;;4845752;29;20097;-89
2022/09/02 11:00:39;;;;;;;2.08;0.40;;;21.30;61.60;;;;;;4877953;29;20156;-90
2022/09/02 11:03:13;;;;;;;1.95;0.30;;;21.40;61.50;;;;;;4858719;29;20735;-88
2022/09/02 11:05:44;;;;;;;1.80;0.30;;;21.50;61.70;;;;;;4873767;29;20049;-88
2022/09/02 11:08:24;;;;;;;2.00;0.30;;;21.60;61.40;;;;;;4861182;29;20053;-90
2022/09/02 11:11:20;;;;;;;0.50;0.20;;;21.60;60.90;;;;;;4859369;29;20486;-90
2022/09/02 11:14:25;;;;;;;4.00;0.40;;;21.90;60.50;;;;;;4863468;29;20131;-94
2022/09/02 11:17:15;;;;;;;3.03;0.40;;;22.00;60.20;;;;;;4840480;29;20593;-89
2022/09/02 11:19:50;;;;;;;1.33;0.20;;;21.90;59.00;;;;;;4884546;29;20067;-86
2022/09/02 11:22:34;;;;;;;2.17;0.52;;;21.90;59.10;;;;;;4857167;29;20136;-89
2022/09/02 11:25:38;;;;;;;1.80;0.35;;;22.00;58.50;;;;;;4878385;29;20120;-91
2022/09/02 11:28:14;;;;;;;2.28;0.45;;;22.10;60.30;;;;;;4875629;29;20198;-91
2022/09/02 11:30:50;;;;;;;2.80;0.40;;;22.00;59.40;;;;;;4874171;29;20055;-85
2022/09/02 11:33:20;;;;;;;2.67;0.40;;;21.90;58.80;;;;;;4847586;29;20356;-94
2022/09/02 11:35:49;;;;;;;0.93;0.20;;;22.00;59.30;;;;;;4846990;29;20130;-91
2022/09/02 11:38:35;;;;;;;1.10;0.50;;;22.10;59.40;;;;;;4853779;29;20080;-94
2022/09/02 11:41:14;;;;;;;2.60;0.40;;;22.00;58.60;;;;;;4840470;29;20068;-86
2022/09/02 11:44:33;;;;;;;1.45;0.40;;;22.00;59.60;;;;;;4847409;29;20049;-95
2022/09/02 11:47:23;;;;;;;1.88;0.52;;;22.00;59.80;;;;;;4859649;29;20049;-87
2022/09/02 11:50:09;;;;;;;1.92;0.43;;;21.90;59.80;;;;;;4854623;29;20088;-91
2022/09/02 11:52:49;;;;;;;1.08;0.40;;;22.10;59.50;;;;;;4843331;29;20053;-96
2022/09/02 11:55:25;;;;;;;1.10;0.30;;;22.00;60.10;;;;;;4835697;29;20068;-96
2022/09/02 11:57:56;;;;;;;2.97;0.60;;;22.00;59.50;;;;;;4852329;29;20052;-93
2022/09/02 12:00:54;;;;;;;1.60;0.53;;;22.00;59.70;;;;;;4847343;29;20137;-91
2022/09/02 12:03:28;;;;;;;3.15;0.50;;;22.00;58.70;;;;;;4853571;29;20304;-94
2022/09/02 12:06:18;;;;;;;2.63;0.52;;;22.10;59.60;;;;;;4840186;29;20045;-89
2022/09/02 12:08:45;;;;;;;1.65;0.35;;;22.10;59.40;;;;;;4846300;29;20060;-86
2022/09/02 12:11:38;;;;;;;0.68;0.30;;;21.90;60.20;;;;;;4860021;29;20045;-93
2022/09/02 12:14:13;;;;;;;3.00;0.32;;;21.90;59.70;;;;;;4836604;29;20047;-89
2022/09/02 12:16:43;;;;;;;2.45;0.50;;;21.80;59.40;;;;;;4855489;29;20084;-94
2022/09/02 12:19:12;;;;;;;0.88;0.25;;;22.00;60.20;;;;;;4842288;29;20045;-95
2022/09/02 12:22:14;;;;;;;1.38;0.40;;;22.10;59.00;;;;;;4843840;29;20082;-88
2022/09/02 12:25:28;;;;;;;3.15;0.30;;;22.20;60.30;;;;;;4844224;29;20037;-90
2022/09/02 12:28:25;;;;;;;1.00;0.30;;;22.10;58.90;;;;;;4833737;29;20041;-90
2022/09/02 12:30:54;;;;;;;1.73;0.40;;;22.10;57.40;;;;;;4843909;29;20872;-90
2022/09/02 12:33:36;;;;;;;4.18;0.50;;;22.20;58.40;;;;;;4842580;29;20057;-92
2022/09/02 12:36:05;;;;;;;6.00;0.93;;;22.30;58.80;;;;;;4844792;29;20045;-86
2022/09/02 12:38:39;;;;;;;1.50;0.40;;;22.10;58.70;;;;;;4836846;29;20105;-96
2022/09/02 12:41:12;;;;;;;0.93;0.40;;;22.10;59.30;;;;;;4849297;29;20105;-89
2022/09/02 12:44:00;;;;;;;1.50;0.45;;;22.30;59.00;;;;;;4850349;29;20072;-89
2022/09/02 12:46:52;;;;;;;4.50;0.60;;;22.40;58.50;;;;;;4850681;29;20083;-85
2022/09/02 12:49:53;;;;;;;2.40;0.40;;;22.30;58.30;;;;;;4840640;29;20041;-92
2022/09/02 12:52:48;;;;;;;1.85;0.50;;;22.40;58.40;;;;;;4846275;29;20054;-95
2022/09/02 12:55:21;;;;;;;2.03;0.40;;;22.40;57.90;;;;;;4847762;29;20048;-91
2022/09/02 12:57:53;;;;;;;1.63;0.40;;;22.20;58.30;;;;;;4835698;29;20661;-87
2022/09/02 13:00:27;;;;;;;2.00;0.40;;;22.30;58.40;;;;;;4838377;29;20139;-89
2022/09/02 13:03:06;;;;;;;2.65;0.32;;;22.20;58.60;;;;;;4841809;29;20041;-95
2022/09/02 13:05:47;;;;;;;1.38;0.52;;;22.30;58.50;;;;;;4841680;29;20072;-88
2022/09/02 13:08:39;;;;;;;2.05;0.40;;;22.30;58.40;;;;;;4837104;29;20125;-86
2022/09/02 13:11:37;;;;;;;1.50;0.70;;;22.20;57.60;;;;;;4840114;29;20045;-86
2022/09/02 13:14:12;;;;;;;1.75;0.60;;;22.00;58.20;;;;;;4855942;29;20049;-85
2022/09/02 13:17:09;;;;;;;1.63;0.73;;;22.10;59.50;;;;;;4835906;29;20064;-86
2022/09/02 13:20:21;;;;;;;1.33;0.52;;;22.40;59.10;;;;;;4838058;29;20093;-91
2022/09/02 13:23:15;;;;;;;2.83;0.43;;;22.70;59.90;;;;;;4859037;29;20148;-89
2022/09/02 13:25:52;;;;;;;4.82;0.63;;;22.50;59.50;;;;;;4837285;29;20052;-90
2022/09/02 13:29:22;;;;;;;2.08;0.55;;;22.30;58.90;;;;;;4843097;29;20052;-89
2022/09/02 13:32:20;;;;;;;1.10;0.40;;;22.20;60.30;;;;;;4776412;29;21194;-89
2022/09/02 13:34:51;;;;;;;2.30;0.50;;;22.00;58.50;;;;;;4843081;29;20080;-90
2022/09/02 13:37:28;;;;;;;2.13;0.57;;;21.90;59.20;;;;;;4842921;29;20053;-87
2022/09/02 13:39:56;;;;;;;1.83;0.47;;;21.90;59.90;;;;;;4844962;29;20060;-87
2022/09/02 13:42:28;;;;;;;4.13;0.50;;;21.80;61.00;;;;;;4842145;29;20167;-87
2022/09/02 13:45:09;;;;;;;2.28;0.63;;;21.80;60.20;;;;;;4859579;29;20064;-91
2022/09/02 13:47:40;;;;;;;2.17;0.75;;;21.90;61.00;;;;;;4861581;29;20148;-89
2022/09/02 13:50:08;;;;;;;1.67;0.65;;;21.90;62.90;;;;;;4842468;29;20078;-89
2022/09/02 13:52:37;;;;;;;4.43;0.60;;;21.80;64.70;;;;;;4837442;29;20144;-92
2022/09/02 13:55:26;;;;;;;4.03;0.73;;;21.90;65.50;;;;;;4844954;29;20082;-91
2022/09/02 13:57:53;;;;;;;4.25;0.60;;;21.90;65.50;;;;;;4841487;29;20132;-93
2022/09/02 14:00:32;;;;;;;2.00;0.70;;;21.90;65.30;;;;;;4868288;29;20057;-87
2022/09/02 14:03:04;;;;;;;2.78;1.33;;;21.80;64.90;;;;;;4850646;29;20057;-95
2022/09/02 14:05:34;;;;;;;2.35;0.75;;;21.80;65.40;;;;;;4834346;29;20149;-94
2022/09/02 14:08:05;;;;;;;5.13;0.70;;;21.60;65.80;;;;;;4860577;29;20037;-93
2022/09/02 14:10:36;;;;;;;2.83;0.80;;;21.60;66.80;;;;;;4843375;29;20128;-92
2022/09/02 14:13:05;;;;;;;2.08;0.55;;;21.50;66.40;;;;;;4871401;29;20056;-91
2022/09/02 14:15:34;;;;;;;2.75;1.20;;;21.40;67.20;;;;;;4840904;29;20593;-94
2022/09/02 14:18:15;;;;;;;3.38;0.82;;;21.30;66.20;;;;;;4841193;29;20057;-88
2022/09/02 14:20:55;;;;;;;3.20;0.77;;;21.30;67.10;;;;;;4840590;29;20052;-92
2022/09/02 14:23:24;;;;;;;2.50;0.80;;;21.30;67.80;;;;;;4845121;29;20136;-88
2022/09/02 14:25:55;;;;;;;4.35;1.00;;;21.30;67.70;;;;;;4843004;29;20066;-96
2022/09/02 14:28:25;;;;;;;1.73;0.65;;;21.30;69.00;;;;;;4862862;29;20144;-92
2022/09/02 14:30:54;;;;;;;3.08;1.30;;;21.30;68.90;;;;;;4862200;29;20057;-92
2022/09/02 14:33:21;;;;;;;5.47;0.95;;;21.10;68.90;;;;;;4847255;29;20057;-92
2022/09/02 14:36:16;;;;;;;2.53;0.80;;;21.10;70.10;;;;;;4849637;29;20052;-91
2022/09/02 14:38:44;;;;;;;3.63;1.02;;;21.10;70.70;;;;;;4866813;29;20409;-88
2022/09/02 14:41:20;;;;;;;3.85;1.08;;;21.00;69.70;;;;;;4849295;29;20144;-96
2022/09/02 14:44:09;;;;;;;6.85;0.90;;;21.00;70.80;;;;;;4845244;29;20049;-87
2022/09/02 14:46:49;;;;;;;3.47;1.02;;;21.10;70.70;;;;;;4839142;29;20057;-89
2022/09/02 14:49:25;;;;;;;3.97;0.80;;;21.00;70.90;;;;;;4862457;29;20105;-88
2022/09/02 14:52:14;;;;;;;3.70;0.95;;;21.00;71.40;;;;;;4873718;29;20148;-89
2022/09/02 14:54:49;;;;;;;2.95;0.88;;;20.90;71.20;;;;;;4855046;29;20057;-89
2022/09/02 14:57:31;;;;;;;2.42;1.17;;;20.90;71.30;;;;;;4845016;29;20046;-95
2022/09/02 15:00:04;;;;;;;4.35;1.33;;;20.80;71.50;;;;;;4855993;29;20051;-89
2022/09/02 15:02:34;;;;;;;3.75;0.82;;;20.70;72.40;;;;;;4841494;29;20076;-96
2022/09/02 15:05:07;;;;;;;4.70;0.88;;;20.70;72.00;;;;;;4845416;29;20076;-88
2022/09/02 15:07:35;;;;;;;2.90;1.20;;;20.70;73.00;;;;;;4841136;29;20113;-88
2022/09/02 15:10:02;;;;;;;2.63;0.60;;;20.60;73.60;;;;;;4850763;29;20041;-88
2022/09/02 15:12:34;;;;;;;3.05;0.88;;;20.70;74.20;;;;;;4849964;29;20060;-88
2022/09/02 15:15:01;;;;;;;2.25;0.55;;;20.70;74.30;;;;;;4844502;29;20045;-86
2022/09/02 15:17:29;;;;;;;2.72;0.60;;;20.70;74.90;;;;;;4838527;29;20073;-93
2022/09/02 15:19:57;;;;;;;3.17;0.77;;;20.60;74.50;;;;;;4859814;29;20045;-90
2022/09/02 15:22:24;;;;;;;2.28;0.80;;;20.40;74.30;;;;;;4851879;29;20076;-94
2022/09/02 15:24:51;;;;;;;2.55;0.73;;;20.40;73.40;;;;;;4852442;29;20061;-87
2022/09/02 15:27:19;;;;;;;4.22;1.10;;;20.30;73.30;;;;;;4849906;29;20105;-95
2022/09/02 15:29:48;;;;;;;3.63;1.00;;;20.40;73.90;;;;;;4840048;29;20167;-88
2022/09/02 15:32:15;;;;;;;3.80;0.82;;;20.40;74.50;;;;;;4845188;29;20072;-89
2022/09/02 15:34:43;;;;;;;1.42;0.93;;;20.40;74.90;;;;;;4853947;29;20060;-88
2022/09/02 15:37:10;;;;;;;4.40;0.80;;;20.50;74.70;;;;;;4866655;29;20055;-88
2022/09/02 15:39:39;;;;;;;2.65;0.90;;;20.40;74.20;;;;;;4868627;29;20040;-86
2022/09/02 15:42:07;;;;;;;4.05;1.17;;;20.50;74.70;;;;;;4863378;29;20056;-92
2022/09/02 15:44:35;;;;;;;1.48;0.70;;;20.50;74.10;;;;;;4866233;29;20091;-92
2022/09/02 15:47:02;;;;;;;3.88;0.70;;;20.50;74.30;;;;;;4856153;29;20101;-90
2022/09/02 15:49:30;;;;;;;4.38;0.73;;;20.40;74.30;;;;;;4883391;29;20084;-92
2022/09/02 15:51:58;;;;;;;2.47;0.60;;;20.20;74.20;;;;;;4866759;29;20049;-91
2022/09/02 15:54:26;;;;;;;4.50;0.88;;;20.20;75.10;;;;;;4864197;29;20060;-87
2022/09/02 15:56:55;;;;;;;2.40;0.80;;;20.10;76.00;;;;;;4864222;29;20088;-93
2022/09/02 15:59:23;;;;;;;2.47;0.77;;;20.20;76.10;;;;;;4866819;29;20049;-91
2022/09/02 16:01:57;;;;;;;2.50;0.70;;;20.20;75.80;;;;;;4858663;29;20076;-93
2022/09/02 16:04:28;;;;;;;1.80;0.60;;;20.20;76.50;;;;;;4863158;29;20080;-92
2022/09/02 16:06:55;;;;;;;3.08;1.10;;;20.10;76.70;;;;;;4877902;29;20498;-88
2022/09/02 16:09:23;;;;;;;5.57;1.02;;;20.10;77.10;;;;;;4861532;29;20104;-89
2022/09/02 16:11:53;;;;;;;1.23;0.73;;;20.20;77.40;;;;;;4864995;29;20053;-87
2022/09/02 16:14:22;;;;;;;3.00;0.82;;;20.20;78.10;;;;;;4861875;29;20056;-88
2022/09/02 16:16:51;;;;;;;2.42;0.68;;;20.20;78.10;;;;;;4873572;29;20131;-88
2022/09/02 16:19:22;;;;;;;3.55;1.30;;;20.20;78.50;;;;;;4857707;29;20064;-87
2022/09/02 16:21:50;;;;;;;4.32;1.00;;;20.10;78.60;;;;;;4875877;29;20057;-87
2022/09/02 16:24:20;;;;;;;3.97;1.13;;;20.10;78.50;;;;;;4874663;29;20044;-89
2022/09/02 16:26:48;;;;;;;4.47;0.88;;;20.00;78.60;;;;;;4861744;29;20044;-90
2022/09/02 16:29:16;;;;;;;5.18;1.65;;;19.90;78.80;;;;;;4857461;29;20401;-88
2022/09/02 16:31:45;;;;;;;4.40;0.82;;;20.00;79.90;;;;;;4880410;29;20060;-87
2022/09/02 16:34:33;;;;;;;4.38;1.00;;;20.00;79.70;;;;;;4861196;29;20065;-91
2022/09/02 16:37:01;;;;;;;2.22;0.95;;;19.90;79.50;;;;;;4839065;29;20106;-88
2022/09/02 16:39:28;;;;;;;5.07;1.23;;;19.90;79.30;;;;;;4850743;29;20045;-91
2022/09/02 16:41:56;;;;;;;3.13;0.70;;;19.80;80.30;;;;;;4844087;29;20510;-88
2022/09/02 16:44:25;;;;;;;4.85;1.27;;;19.80;80.00;;;;;;4841308;29;20049;-88
2022/09/02 16:46:53;;;;;;;4.18;0.70;;;19.80;81.10;;;;;;4839835;29;20072;-89
2022/09/02 16:49:20;;;;;;;2.22;0.80;;;19.80;81.20;;;;;;4838653;29;20052;-87
2022/09/02 16:51:50;;;;;;;4.82;1.02;;;19.80;81.40;;;;;;4834006;29;20064;-86
2022/09/02 16:54:27;;;;;;;2.95;1.30;;;19.80;81.40;;;;;;4829009;29;20063;-87
2022/09/02 16:57:00;;;;;;;3.60;1.55;;;19.80;82.00;;;;;;4842268;29;20077;-87
2022/09/02 16:59:32;;;;;;;4.07;0.98;;;19.80;82.30;;;;;;4846342;29;20064;-87
2022/09/02 17:01:59;;;;;;;2.90;0.90;;;19.70;82.90;;;;;;4841256;29;20053;-88
2022/09/02 17:04:27;;;;;;;3.55;0.90;;;19.60;82.90;;;;;;4858517;29;20513;-86
2022/09/02 17:06:55;;;;;;;3.58;1.00;;;19.60;83.70;;;;;;4836909;29;20045;-86
2022/09/02 17:09:23;;;;;;;2.92;0.85;;;19.50;83.80;;;;;;4843763;29;20057;-88
2022/09/02 17:11:50;;;;;;;3.50;0.60;;;19.50;84.30;;;;;;4864643;29;20215;-87
2022/09/02 17:14:20;;;;;;;3.47;1.10;;;19.50;84.20;;;;;;4847551;29;20072;-88
2022/09/02 17:16:50;;;;;;;3.08;1.10;;;19.40;83.70;;;;;;4845365;29;20064;-87
2022/09/02 17:19:22;;;;;;;2.85;0.80;;;19.40;84.90;;;;;;4856986;29;20048;-87
2022/09/02 17:21:55;;;;;;;2.05;0.63;;;19.40;86.40;;;;;;4852578;29;20041;-86
2022/09/02 17:24:26;;;;;;;2.55;0.93;;;19.30;85.80;;;;;;4847719;29;20041;-86
2022/09/02 17:26:54;;;;;;;2.58;1.35;;;19.30;85.70;;;;;;4844261;29;20053;-87
2022/09/02 17:29:23;;;;;;;2.42;1.10;;;19.30;85.40;;;;;;4841584;29;20045;-87
2022/09/02 17:32:11;;;;;;;3.80;1.00;;;19.30;86.20;;;;;;4846584;29;20049;-87
2022/09/02 17:34:38;;;;;;;2.90;1.00;;;19.20;86.30;;;;;;4842099;29;20062;-87
2022/09/02 17:37:06;;;;;;;2.88;0.95;;;19.20;86.40;;;;;;4859707;29;20111;-87
2022/09/02 17:39:34;;;;;;;2.88;0.95;;;19.20;86.10;;;;;;4835443;29;20061;-87
2022/09/02 17:42:04;;;;;;;2.70;1.05;;;19.20;87.60;;;;;;4842456;29;20049;-87
2022/09/02 17:44:36;;;;;;;2.17;0.93;;;19.10;86.60;;;;;;4840106;29;20049;-87
2022/09/02 17:47:13;;;;;;;3.53;1.10;;;19.10;86.80;;;;;;4837514;29;20057;-86
2022/09/02 17:49:43;;;;;;;3.08;0.90;;;19.10;87.20;;;;;;4840722;29;20056;-87
2022/09/02 17:52:14;;;;;;;3.90;1.00;;;19.10;87.70;;;;;;4850675;29;20057;-86
2022/09/02 17:54:41;;;;;;;2.35;1.15;;;19.00;87.50;;;;;;4844581;29;20057;-87
2022/09/02 17:57:24;;;;;;;3.10;1.10;;;19.00;88.70;;;;;;4859643;29;20144;-86
2022/09/02 18:00:16;;;;;;;3.42;1.25;;;18.90;88.00;;;;;;4842496;29;20053;-88
2022/09/02 18:03:02;;;;;;;3.03;1.08;;;18.80;87.60;;;;;;4839725;29;20522;-87
2022/09/02 18:05:43;;;;;;;2.25;0.98;;;18.80;88.00;;;;;;4845994;29;20410;-86
2022/09/02 18:08:22;;;;;;;3.50;1.05;;;18.80;88.60;;;;;;4840303;29;20764;-86
2022/09/02 18:10:52;;;;;;;4.50;1.52;;;18.70;89.00;;;;;;4855014;29;20072;-89
2022/09/02 18:13:33;;;;;;;4.53;1.40;;;18.70;89.20;;;;;;4851847;29;20052;-87
2022/09/02 18:16:16;;;;;;;4.15;1.27;;;18.70;89.80;;;;;;4838112;29;20057;-87
2022/09/02 18:19:17;;;;;;;2.72;1.00;;;18.70;90.10;;;;;;4842814;29;20494;-87
2022/09/02 18:22:07;;;;;;;2.42;1.10;;;18.60;90.30;;;;;;4805086;29;20063;-87
2022/09/02 18:24:42;;;;;;;4.57;1.17;;;18.60;90.60;;;;;;4853064;29;20056;-88
2022/09/02 18:27:20;;;;;;;3.78;1.08;;;18.60;90.20;;;;;;4858047;29;20044;-88
2022/09/02 18:29:59;;;;;;;5.18;1.05;;;18.60;90.90;;;;;;4856930;29;20053;-87
2022/09/02 18:32:43;;;;;;;3.90;1.42;;;18.60;90.10;;;;;;4844312;29;20053;-87
2022/09/02 18:35:38;;;;;;;3.72;1.10;;;18.50;90.30;;;;;;4850192;29;20072;-87
2022/09/02 18:38:27;;;;;;;7.82;1.73;;;18.50;90.00;;;;;;4868078;29;20078;-87
2022/09/02 18:41:27;;;;;;;2.20;1.33;;;18.50;90.10;;;;;;4839020;29;20080;-88
2022/09/02 18:44:27;;;;;;;4.10;1.13;;;18.40;90.00;;;;;;4832776;29;20132;-87
2022/09/02 18:47:04;;;;;;;3.15;1.13;;;18.50;90.30;;;;;;4838406;29;20045;-88
2022/09/02 18:49:35;;;;;;;3.72;1.10;;;18.40;90.70;;;;;;4844847;29;20144;-88
2022/09/02 18:52:06;;;;;;;3.25;1.33;;;18.40;90.50;;;;;;4843420;29;20064;-88
2022/09/02 18:54:43;;;;;;;3.88;1.23;;;18.30;90.90;;;;;;4838905;29;20499;-88
2022/09/02 18:57:11;;;;;;;2.05;0.90;;;18.30;91.20;;;;;;4834366;29;20053;-88
2022/09/02 18:59:55;;;;;;;2.47;1.17;;;18.30;92.10;;;;;;4843387;29;20056;-88
2022/09/02 19:02:40;;;;;;;2.42;1.13;;;18.30;92.00;;;;;;4841450;29;20518;-88
2022/09/02 19:05:11;;;;;;;3.88;1.17;;;18.30;92.30;;;;;;4852751;29;20059;-88
2022/09/02 19:10:30;;;;;;;5.80;1.45;;;18.20;92.10;;;;;;4854953;29;20069;-89
2022/09/02 19:13:00;;;;;;;6.40;1.35;;;18.20;92.30;;;;;;4849682;29;20052;-90
2022/09/02 19:15:27;;;;;;;6.20;1.55;;;18.20;92.50;;;;;;4841977;29;20503;-88
2022/09/02 19:17:55;;;;;;;2.97;1.25;;;18.10;92.80;;;;;;4839600;29;20097;-88
2022/09/02 19:20:23;;;;;;;2.75;1.27;;;18.10;92.80;;;;;;4839764;29;20789;-88
2022/09/02 19:22:54;;;;;;;4.78;1.20;;;18.10;92.80;;;;;;4840197;29;20482;-88
2022/09/02 19:25:25;;;;;;;2.50;1.05;;;18.10;93.10;;;;;;4842490;29;20045;-88
2022/09/02 19:27:55;;;;;;;3.28;1.30;;;18.00;93.20;;;;;;4841078;29;20080;-87
2022/09/02 19:30:23;;;;;;;4.07;1.35;;;17.90;92.90;;;;;;4840812;29;20053;-88
2022/09/02 19:32:53;;;;;;;5.93;2.00;;;17.90;92.50;;;;;;4840105;29;20468;-88
2022/09/02 19:35:25;;;;;;;3.60;1.35;;;17.90;92.60;;;;;;4861286;29;20044;-89
2022/09/02 19:37:54;;;;;;;3.80;1.40;;;17.90;92.90;;;;;;4869568;29;20045;-88
2022/09/02 19:45:02;;;;;;;5.32;2.40;;;17.90;93.30;;;;;;4933335;24;20092;-87
2022/09/02 19:48:16;;;;;;;7.18;2.83;;;17.80;93.60;;;;;;4800909;29;20135;-86
2022/09/02 19:50:50;;;;;;;4.45;2.60;;;17.70;93.70;;;;;;4732726;30;20143;-87
2022/09/02 19:59:25;;;;;;;4.50;1.98;;;17.50;94.20;;;;;;4692539;30;20119;-83
2022/09/02 20:03:32;;;;;;;3.10;1.70;;;17.50;94.20;;;;;;4643686;30;20074;-84
2022/09/02 20:13:51;;;;;;;3.20;1.70;;;17.40;95.20;;;;;;4913656;29;20319;-83
2022/09/02 20:17:59;;;;;;;3.67;1.60;;;17.40;95.70;;;;;;4822906;29;20551;-83
2022/09/02 20:28:55;;;;;;;7.20;2.28;;;17.40;96.50;;;;;;4893695;29;20124;-83
2022/09/02 20:32:43;;;;;;;5.03;2.40;;;17.30;96.20;;;;;;4740102;30;20048;-82
2022/09/02 20:36:46;;;;;;;4.43;2.53;;;17.30;97.40;;;;;;4694221;30;20058;-83
2022/09/02 20:40:47;;;;;;;5.63;2.40;;;17.20;97.30;;;;;;4638338;30;20052;-84
2022/09/02 20:51:38;;;;;;;4.50;2.70;;;17.20;98.40;;;;;;4863214;29;20139;-83
2022/09/02 20:55:34;;;;;;;9.40;3.10;;;17.10;98.70;;;;;;4827943;29;20047;-85
2022/09/02 21:09:20;;;;;;;6.45;2.63;;;17.10;99.90;;;;;;4887052;29;20100;-85
2022/09/02 21:15:48;;;;;;;5.55;2.42;;;17.00;99.90;;;;;;4907988;23;20043;-85
2022/09/02 21:19:59;;;;;;;5.13;2.00;;;16.90;99.90;;;;;;4899130;29;20060;-85
2022/09/02 21:23:53;;;;;;;6.68;1.90;;;16.40;99.90;;;;;;4828593;29;20031;-85
2022/09/02 21:27:25;;;;;;;5.43;1.67;;;16.90;99.90;;;;;;4779770;29;20040;-86
2022/09/02 21:30:33;;;;;;;3.60;2.08;;;16.80;99.90;;;;;;4786776;29;20048;-86
2022/09/02 21:33:21;;;;;;;4.72;2.13;;;16.70;99.90;;;;;;4718738;30;20068;-86
2022/09/02 21:36:42;;;;;;;3.33;1.88;;;16.70;99.90;;;;;;4725586;30;20044;-86
2022/09/02 21:40:06;;;;;;;4.72;1.55;;;16.40;99.90;;;;;;4642402;31;20111;-85
2022/09/02 21:43:37;;;;;;;5.13;2.88;;;16.60;99.90;;;;;;4672339;30;20071;-85
2022/09/02 21:47:00;;;;;;;4.03;2.10;;;16.70;99.90;;;;;;4663711;30;20059;-85
2022/09/02 21:50:13;;;;;;;3.47;1.50;;;16.30;99.90;;;;;;4634532;31;20059;-85
2022/09/02 21:53:28;;;;;;;3.63;1.50;;;16.60;99.90;;;;;;4633987;30;20183;-85
2022/09/02 21:56:11;;;;;;;2.72;1.40;;;16.50;99.90;;;;;;4675330;30;20051;-86
2022/09/02 21:59:49;;;;;;;4.68;1.85;;;16.50;99.90;;;;;;4634486;31;20044;-86
2022/09/02 22:03:29;;;;;;;5.78;2.25;;;16.50;99.90;;;;;;4601531;31;20096;-86
2022/09/02 22:06:11;;;;;;;5.63;1.70;;;16.50;99.90;;;;;;4591073;31;20054;-86
2022/09/02 22:09:22;;;;;;;5.13;2.05;;;16.60;99.90;;;;;;4586322;31;20056;-86
2022/09/02 22:12:13;;;;;;;3.13;1.63;;;16.40;99.90;;;;;;4558748;31;20580;-86
2022/09/02 22:15:01;;;;;;;4.32;1.70;;;16.40;99.90;;;;;;4535117;31;20442;-84
2022/09/02 22:18:09;;;;;;;5.10;1.70;;;16.40;99.90;;;;;;4555983;31;20172;-85
2022/09/02 22:21:06;;;;;;;4.22;1.75;;;16.40;99.90;;;;;;4544488;31;20060;-85
2022/09/02 22:23:56;;;;;;;3.47;1.95;;;16.40;99.90;;;;;;4557729;31;20062;-86
2022/09/02 22:27:17;;;;;;;3.28;1.40;;;16.20;99.90;;;;;;4578939;31;20057;-85
2022/09/02 22:29:56;;;;;;;6.45;2.00;;;16.40;99.90;;;;;;4637792;31;20145;-85
2022/09/02 22:33:07;;;;;;;4.65;1.73;;;16.30;99.90;;;;;;4647362;30;20047;-86
2022/09/02 22:35:54;;;;;;;3.78;1.70;;;16.20;99.90;;;;;;4714565;30;20058;-85
2022/09/02 22:38:46;;;;;;;3.80;2.05;;;16.20;99.90;;;;;;4779728;30;20060;-85
2022/09/02 22:42:05;;;;;;;4.35;2.15;;;16.20;99.90;;;;;;4741229;30;20069;-86
2022/09/02 22:54:43;;;;;;;4.57;2.53;;;16.10;99.90;;;;;;4686197;30;20050;-86
2022/09/02 22:58:01;;;;;;;4.68;2.63;;;16.10;99.90;;;;;;4641943;31;20044;-85
2022/09/02 23:01:30;;;;;;;4.82;2.30;;;16.10;99.90;;;;;;4647300;30;20116;-86
2022/09/02 23:05:40;;;;;;;2.63;1.95;;;15.90;99.90;;;;;;4628726;31;20124;-86
2022/09/02 23:08:10;;;;;;;4.25;2.33;;;16.00;99.90;;;;;;4634973;30;20055;-86
2022/09/02 23:11:33;;;;;;;4.95;2.30;;;16.60;99.90;;;;;;4646544;30;20059;-86
2022/09/02 23:15:12;;;;;;;6.22;2.28;;;15.90;99.90;;;;;;4673551;30;20085;-86
2022/09/02 23:18:02;;;;;;;6.47;2.55;;;15.90;99.90;;;;;;4696137;30;20058;-86
2022/09/02 23:21:45;;;;;;;5.65;2.53;;;15.90;99.90;;;;;;4714782;30;20165;-86